Kang Sheng — VRXL3 — position and weather

sailwx.info

Track history (hours):
 
Tides and Currents Weather Stations Pressure Air Temp Water Temp Dewpoint Dewpoint Depression Visibility Wind Speed Wind Dir Waves Ship Positions

Kang Sheng

Last reported at 2016-Apr-18 14:32 UTC. Time now 2016-Apr-30 05:15 UTC.
Position N 22°20' E 120°14'.
Warning: this ship's position is 11 days out of date.

Length 190 m; draft 10.8 m.

Type: Cargo ship. MMSI: 477977000.

Date/timePositionNaut miles runAvg speedWind from/ knotsBaromVisibWave heightAir tempDewpointWater temp
2016-Apr-18 14:32N 22°20' E 120°14'1111.5
2016-Apr-18 13:33N 22°31' E 120°12'  
2016-Apr-15 23:33N 22°33' E 120°17'2 2.0
2016-Apr-15 22:33N 22°31' E 120°17'0 0.1
2016-Apr-15 21:33N 22°31' E 120°17'0 0.1
2016-Apr-15 20:33N 22°31' E 120°17'0 0.1
2016-Apr-15 19:33N 22°31' E 120°17'0 0.0
2016-Apr-15 18:33N 22°31' E 120°17'0 0.1
2016-Apr-15 17:33N 22°31' E 120°17'0 0.0
2016-Apr-15 16:33N 22°31' E 120°17'0 0.0
2016-Apr-15 15:33N 22°31' E 120°17'0 0.0
2016-Apr-15 14:33N 22°31' E 120°17'0 0.2
2016-Apr-15 13:33N 22°31' E 120°17'0 0.1
2016-Apr-15 12:33N 22°31' E 120°16'0 0.0
2016-Apr-15 11:33N 22°31' E 120°16'0 0.2
2016-Apr-15 10:27N 22°31' E 120°17'0 0.0
2016-Apr-15 09:33N 22°31' E 120°17'0 0.1
2016-Apr-15 08:33N 22°31' E 120°17'0 0.1
2016-Apr-15 07:33N 22°31' E 120°17'0 0.1
2016-Apr-15 06:33N 22°31' E 120°17'0 0.1
2016-Apr-15 05:33N 22°31' E 120°17'0 0.0
2016-Apr-15 04:33N 22°31' E 120°17'0 0.1
2016-Apr-15 03:33N 22°31' E 120°17'0 0.1
2016-Apr-15 02:33N 22°31' E 120°17'0 0.1
2016-Apr-15 01:33N 22°31' E 120°17'0 0.0
2016-Apr-15 00:33N 22°31' E 120°17'0 0.1
2016-Apr-14 23:27N 22°31' E 120°17'0 0.1
2016-Apr-14 22:33N 22°31' E 120°17'0 0.1
2016-Apr-14 21:33N 22°31' E 120°17'0 0.1
2016-Apr-14 20:33N 22°31' E 120°17'0 0.1
2016-Apr-14 19:33N 22°31' E 120°17'0 0.0
2016-Apr-14 18:33N 22°31' E 120°17'0 0.0
2016-Apr-14 17:33N 22°31' E 120°17'0 0.1
2016-Apr-14 16:33N 22°31' E 120°17'0 0.0
2016-Apr-14 15:33N 22°31' E 120°17'0 0.0
2016-Apr-14 14:33N 22°31' E 120°17'0 0.1
2016-Apr-14 13:33N 22°31' E 120°17'0 0.1
2016-Apr-14 12:33N 22°31' E 120°17'0 0.1
2016-Apr-14 11:33N 22°31' E 120°17'0 0.1
2016-Apr-14 10:33N 22°31' E 120°17'0 0.1
2016-Apr-14 09:33N 22°31' E 120°17'0 0.1
2016-Apr-14 08:33N 22°31' E 120°17'0 0.0
2016-Apr-14 07:33N 22°31' E 120°17'0 0.1
2016-Apr-14 06:33N 22°31' E 120°16'0 0.1
2016-Apr-14 05:33N 22°31' E 120°17'0 0.1
2016-Apr-14 04:33N 22°31' E 120°17'0 0.0
2016-Apr-14 03:27N 22°31' E 120°17'0 0.0
2016-Apr-14 02:27N 22°31' E 120°17'0 0.0
2016-Apr-14 01:33N 22°31' E 120°17'0 0.0
2016-Apr-14 00:33N 22°31' E 120°17'0 0.0
2016-Apr-13 23:33N 22°31' E 120°17'0 0.0
2016-Apr-13 22:33N 22°31' E 120°17'0 0.0
2016-Apr-13 21:33N 22°31' E 120°17'0 0.0
2016-Apr-13 20:33N 22°31' E 120°17'0 0.0
2016-Apr-13 19:33N 22°31' E 120°17'0 0.1
2016-Apr-13 18:33N 22°31' E 120°17'0 0.1
2016-Apr-13 17:33N 22°31' E 120°17'0 0.0
2016-Apr-13 16:33N 22°31' E 120°17'0 0.0
2016-Apr-13 15:33N 22°31' E 120°17'0 0.0
2016-Apr-13 14:33N 22°31' E 120°17'0 0.0
2016-Apr-13 13:33N 22°31' E 120°17'0 0.1
2016-Apr-13 12:27N 22°31' E 120°17'0 0.0
2016-Apr-13 11:33N 22°31' E 120°17'0 0.0
2016-Apr-13 10:33N 22°31' E 120°17'0 0.0
2016-Apr-13 09:15N 22°31' E 120°17'0 0.0
2016-Apr-13 08:33N 22°31' E 120°17'0 0.0
2016-Apr-13 07:33N 22°31' E 120°17'0 0.0
2016-Apr-13 06:33N 22°31' E 120°17'0 0.1
2016-Apr-13 05:33N 22°31' E 120°17'0 0.0
2016-Apr-13 04:33N 22°31' E 120°17'0 0.0
2016-Apr-13 03:33N 22°31' E 120°17'0 0.1
2016-Apr-13 02:33N 22°31' E 120°17'2 2.2
2016-Apr-13 01:33N 22°30' E 120°14'9 9.3
2016-Apr-13 00:33N 22°39' E 120°10'6 6.5
2016-Apr-12 23:33N 22°37' E 120°17'1 0.6
2016-Apr-12 22:30N 22°37' E 120°17'0 0.0
2016-Apr-12 21:30N 22°37' E 120°17'0 0.0
2016-Apr-12 18:30N 22°37' E 120°17'0 0.0
2016-Apr-12 15:30N 22°37' E 120°17'0 0.0
2016-Apr-12 14:30N 22°37' E 120°17'0 0.0
2016-Apr-12 13:30N 22°37' E 120°17'0 0.0
2016-Apr-12 07:24N 22°37' E 120°17'0 0.0
2016-Apr-12 06:18N 22°37' E 120°17'0 0.0
2016-Apr-12 04:30N 22°37' E 120°17'0 0.0
2016-Apr-12 03:30N 22°37' E 120°17'0 0.0
2016-Apr-12 02:30N 22°37' E 120°17'0 0.0
2016-Apr-12 01:12N 22°37' E 120°17'0 0.0
2016-Apr-12 00:24N 22°37' E 120°17'0 0.0
2016-Apr-11 23:24N 22°37' E 120°17'0 0.0
2016-Apr-11 22:30N 22°37' E 120°17'0 0.0
2016-Apr-11 20:12N 22°37' E 120°17'0 0.0
2016-Apr-11 15:24N 22°37' E 120°17'0 0.0
2016-Apr-11 14:12N 22°37' E 120°17'0 0.0
2016-Apr-11 12:30N 22°37' E 120°17'0 0.0
2016-Apr-11 11:30N 22°37' E 120°17'0 0.0
2016-Apr-11 10:06N 22°37' E 120°17'0 0.0
2016-Apr-11 07:12N 22°37' E 120°17'0 0.0
2016-Apr-11 06:24N 22°37' E 120°17'0 0.0
2016-Apr-11 02:30N 22°37' E 120°17'0 0.0
2016-Apr-11 01:30N 22°37' E 120°17'0 0.0
2016-Apr-10 23:06N 22°37' E 120°17'0 0.0
2016-Apr-10 14:30N 22°37' E 120°17'0 0.0
2016-Apr-10 13:30N 22°37' E 120°17'0 0.0
2016-Apr-10 03:15N 22°37' E 120°17'0 0.0
2016-Apr-10 02:33N 22°37' E 120°17'0 0.0
2016-Apr-10 01:33N 22°37' E 120°17'0 0.0
2016-Apr-09 10:27N 22°37' E 120°17'0 0.0
2016-Apr-09 09:33N 22°37' E 120°17'0 0.0
2016-Apr-09 08:27N 22°37' E 120°17'0 0.0
2016-Apr-09 07:33N 22°37' E 120°17'0 0.0
2016-Apr-09 01:06N 22°37' E 120°17'0 0.0
2016-Apr-09 00:12N 22°37' E 120°17'0 0.0
2016-Apr-08 23:24N 22°37' E 120°17'0 0.0
2016-Apr-08 22:30N 22°37' E 120°17'0 0.0
2016-Apr-08 21:30N 22°37' E 120°17'0 0.0
2016-Apr-08 20:30N 22°37' E 120°17'0 0.0
2016-Apr-08 19:30N 22°37' E 120°17'0 0.0
2016-Apr-08 18:18N 22°37' E 120°17'0 0.0
2016-Apr-08 17:30N 22°37' E 120°17'0 0.0
2016-Apr-08 16:30N 22°37' E 120°17'0 0.0
2016-Apr-08 15:30N 22°37' E 120°17'  
Track history (hours):
 
Tides and Currents Weather Stations Pressure Air Temp Water Temp Dewpoint Dewpoint Depression Visibility Wind Speed Wind Dir Waves Ship Positions

Kang Sheng

Last reported at 2016-Apr-18 14:32 UTC. Time now 2016-Apr-30 05:15 UTC.
Position N 22°20' E 120°14'.
Warning: this ship's position is 11 days out of date.

Length 190 m; draft 10.8 m.

Type: Cargo ship. MMSI: 477977000.

Date/timePositionNaut miles runAvg speedWind from/ knotsBaromVisibWave heightAir tempDewpointWater temp
2016-Apr-18 14:32N 22°20' E 120°14'1111.5
2016-Apr-18 13:33N 22°31' E 120°12'  
2016-Apr-15 23:33N 22°33' E 120°17'2 2.0
2016-Apr-15 22:33N 22°31' E 120°17'0 0.1
2016-Apr-15 21:33N 22°31' E 120°17'0 0.1
2016-Apr-15 20:33N 22°31' E 120°17'0 0.1
2016-Apr-15 19:33N 22°31' E 120°17'0 0.0
2016-Apr-15 18:33N 22°31' E 120°17'0 0.1
2016-Apr-15 17:33N 22°31' E 120°17'0 0.0
2016-Apr-15 16:33N 22°31' E 120°17'0 0.0
2016-Apr-15 15:33N 22°31' E 120°17'0 0.0
2016-Apr-15 14:33N 22°31' E 120°17'0 0.2
2016-Apr-15 13:33N 22°31' E 120°17'0 0.1
2016-Apr-15 12:33N 22°31' E 120°16'0 0.0
2016-Apr-15 11:33N 22°31' E 120°16'0 0.2
2016-Apr-15 10:27N 22°31' E 120°17'0 0.0
2016-Apr-15 09:33N 22°31' E 120°17'0 0.1
2016-Apr-15 08:33N 22°31' E 120°17'0 0.1
2016-Apr-15 07:33N 22°31' E 120°17'0 0.1
2016-Apr-15 06:33N 22°31' E 120°17'0 0.1
2016-Apr-15 05:33N 22°31' E 120°17'0 0.0
2016-Apr-15 04:33N 22°31' E 120°17'0 0.1
2016-Apr-15 03:33N 22°31' E 120°17'0 0.1
2016-Apr-15 02:33N 22°31' E 120°17'0 0.1
2016-Apr-15 01:33N 22°31' E 120°17'0 0.0
2016-Apr-15 00:33N 22°31' E 120°17'0 0.1
2016-Apr-14 23:27N 22°31' E 120°17'0 0.1
2016-Apr-14 22:33N 22°31' E 120°17'0 0.1
2016-Apr-14 21:33N 22°31' E 120°17'0 0.1
2016-Apr-14 20:33N 22°31' E 120°17'0 0.1
2016-Apr-14 19:33N 22°31' E 120°17'0 0.0
2016-Apr-14 18:33N 22°31' E 120°17'0 0.0
2016-Apr-14 17:33N 22°31' E 120°17'0 0.1
2016-Apr-14 16:33N 22°31' E 120°17'0 0.0
2016-Apr-14 15:33N 22°31' E 120°17'0 0.0
2016-Apr-14 14:33N 22°31' E 120°17'0 0.1
2016-Apr-14 13:33N 22°31' E 120°17'0 0.1
2016-Apr-14 12:33N 22°31' E 120°17'0 0.1
2016-Apr-14 11:33N 22°31' E 120°17'0 0.1
2016-Apr-14 10:33N 22°31' E 120°17'0 0.1
2016-Apr-14 09:33N 22°31' E 120°17'0 0.1
2016-Apr-14 08:33N 22°31' E 120°17'0 0.0
2016-Apr-14 07:33N 22°31' E 120°17'0 0.1
2016-Apr-14 06:33N 22°31' E 120°16'0 0.1
2016-Apr-14 05:33N 22°31' E 120°17'0 0.1
2016-Apr-14 04:33N 22°31' E 120°17'0 0.0
2016-Apr-14 03:27N 22°31' E 120°17'0 0.0
2016-Apr-14 02:27N 22°31' E 120°17'0 0.0
2016-Apr-14 01:33N 22°31' E 120°17'0 0.0
2016-Apr-14 00:33N 22°31' E 120°17'0 0.0
2016-Apr-13 23:33N 22°31' E 120°17'0 0.0
2016-Apr-13 22:33N 22°31' E 120°17'0 0.0
2016-Apr-13 21:33N 22°31' E 120°17'0 0.0
2016-Apr-13 20:33N 22°31' E 120°17'0 0.0
2016-Apr-13 19:33N 22°31' E 120°17'0 0.1
2016-Apr-13 18:33N 22°31' E 120°17'0 0.1
2016-Apr-13 17:33N 22°31' E 120°17'0 0.0
2016-Apr-13 16:33N 22°31' E 120°17'0 0.0
2016-Apr-13 15:33N 22°31' E 120°17'0 0.0
2016-Apr-13 14:33N 22°31' E 120°17'0 0.0
2016-Apr-13 13:33N 22°31' E 120°17'0 0.1
2016-Apr-13 12:27N 22°31' E 120°17'0 0.0
2016-Apr-13 11:33N 22°31' E 120°17'0 0.0
2016-Apr-13 10:33N 22°31' E 120°17'0 0.0
2016-Apr-13 09:15N 22°31' E 120°17'0 0.0
2016-Apr-13 08:33N 22°31' E 120°17'0 0.0
2016-Apr-13 07:33N 22°31' E 120°17'0 0.0
2016-Apr-13 06:33N 22°31' E 120°17'0 0.1
2016-Apr-13 05:33N 22°31' E 120°17'0 0.0
2016-Apr-13 04:33N 22°31' E 120°17'0 0.0
2016-Apr-13 03:33N 22°31' E 120°17'0 0.1
2016-Apr-13 02:33N 22°31' E 120°17'2 2.2
2016-Apr-13 01:33N 22°30' E 120°14'9 9.3
2016-Apr-13 00:33N 22°39' E 120°10'6 6.5
2016-Apr-12 23:33N 22°37' E 120°17'1 0.6
2016-Apr-12 22:30N 22°37' E 120°17'0 0.0
2016-Apr-12 21:30N 22°37' E 120°17'0 0.0
2016-Apr-12 18:30N 22°37' E 120°17'0 0.0
2016-Apr-12 15:30N 22°37' E 120°17'0 0.0
2016-Apr-12 14:30N 22°37' E 120°17'0 0.0
2016-Apr-12 13:30N 22°37' E 120°17'0 0.0
2016-Apr-12 07:24N 22°37' E 120°17'0 0.0
2016-Apr-12 06:18N 22°37' E 120°17'0 0.0
2016-Apr-12 04:30N 22°37' E 120°17'0 0.0
2016-Apr-12 03:30N 22°37' E 120°17'0 0.0
2016-Apr-12 02:30N 22°37' E 120°17'0 0.0
2016-Apr-12 01:12N 22°37' E 120°17'0 0.0
2016-Apr-12 00:24N 22°37' E 120°17'0 0.0
2016-Apr-11 23:24N 22°37' E 120°17'0 0.0
2016-Apr-11 22:30N 22°37' E 120°17'0 0.0
2016-Apr-11 20:12N 22°37' E 120°17'0 0.0
2016-Apr-11 15:24N 22°37' E 120°17'0 0.0
2016-Apr-11 14:12N 22°37' E 120°17'0 0.0
2016-Apr-11 12:30N 22°37' E 120°17'0 0.0
2016-Apr-11 11:30N 22°37' E 120°17'0 0.0
2016-Apr-11 10:06N 22°37' E 120°17'0 0.0
2016-Apr-11 07:12N 22°37' E 120°17'0 0.0
2016-Apr-11 06:24N 22°37' E 120°17'0 0.0
2016-Apr-11 02:30N 22°37' E 120°17'0 0.0
2016-Apr-11 01:30N 22°37' E 120°17'0 0.0
2016-Apr-10 23:06N 22°37' E 120°17'0 0.0
2016-Apr-10 14:30N 22°37' E 120°17'0 0.0
2016-Apr-10 13:30N 22°37' E 120°17'0 0.0
2016-Apr-10 03:15N 22°37' E 120°17'0 0.0
2016-Apr-10 02:33N 22°37' E 120°17'0 0.0
2016-Apr-10 01:33N 22°37' E 120°17'0 0.0
2016-Apr-09 10:27N 22°37' E 120°17'0 0.0
2016-Apr-09 09:33N 22°37' E 120°17'0 0.0
2016-Apr-09 08:27N 22°37' E 120°17'0 0.0
2016-Apr-09 07:33N 22°37' E 120°17'0 0.0
2016-Apr-09 01:06N 22°37' E 120°17'0 0.0
2016-Apr-09 00:12N 22°37' E 120°17'0 0.0
2016-Apr-08 23:24N 22°37' E 120°17'0 0.0
2016-Apr-08 22:30N 22°37' E 120°17'0 0.0
2016-Apr-08 21:30N 22°37' E 120°17'0 0.0
2016-Apr-08 20:30N 22°37' E 120°17'0 0.0
2016-Apr-08 19:30N 22°37' E 120°17'0 0.0
2016-Apr-08 18:18N 22°37' E 120°17'0 0.0
2016-Apr-08 17:30N 22°37' E 120°17'0 0.0
2016-Apr-08 16:30N 22°37' E 120°17'0 0.0
2016-Apr-08 15:30N 22°37' E 120°17'  

Dump ship's entire track history